createdAt,value
2023-02-11T00:02:23.904Z,66.35
2023-02-11T00:04:54.018Z,66.57
2023-02-11T00:07:23.528Z,66.42
2023-02-11T00:09:54.569Z,66.63
2023-02-11T00:12:22.983Z,66.43
2023-02-11T00:14:52.507Z,65.66
2023-02-11T00:17:22.308Z,65.92
2023-02-11T00:19:51.997Z,66.01
2023-02-11T00:22:21.563Z,65.83
2023-02-11T00:24:51.048Z,65.86
2023-02-11T00:27:20.591Z,65.56
2023-02-11T00:29:49.769Z,65.46
2023-02-11T00:32:19.244Z,65.17
2023-02-11T00:34:52.185Z,65.83
2023-02-11T00:37:22.830Z,66.25
2023-02-11T00:39:52.485Z,66.04
2023-02-11T00:42:21.667Z,65.89
2023-02-11T00:44:51.214Z,65.61
2023-02-11T00:47:20.375Z,66.08
2023-02-11T00:49:49.849Z,65.34
2023-02-11T00:52:18.982Z,65.66
2023-02-11T00:54:48.128Z,65.65
2023-02-11T00:57:17.778Z,65.50
2023-02-11T00:59:47.436Z,65.12
2023-02-11T01:02:16.939Z,65.89
2023-02-11T01:04:46.726Z,65.69
2023-02-11T01:07:16.366Z,65.57
2023-02-11T01:09:46.006Z,65.66
2023-02-11T01:12:14.346Z,65.81
2023-02-11T01:14:44.479Z,65.74
2023-02-11T01:17:14.044Z,65.13
2023-02-11T01:19:44.398Z,65.43
2023-02-11T01:22:13.919Z,65.93
2023-02-11T01:24:43.406Z,65.71
2023-02-11T01:27:12.721Z,65.75
2023-02-11T01:29:42.850Z,65.79
2023-02-11T01:32:12.553Z,65.66
2023-02-11T01:34:42.063Z,65.63
2023-02-11T01:37:11.200Z,65.97
2023-02-11T01:39:40.546Z,65.48
2023-02-11T01:42:16.428Z,65.63
2023-02-11T01:44:51.600Z,65.19
2023-02-11T01:47:22.922Z,65.18
2023-02-11T01:50:02.217Z,65.71
2023-02-11T01:52:36.217Z,65.80
2023-02-11T01:55:26.421Z,65.35
2023-02-11T01:57:57.594Z,66.14
2023-02-11T02:00:37.228Z,66.68
2023-02-11T02:03:20.472Z,66.42
2023-02-11T02:05:56.071Z,66.01
2023-02-11T02:08:32.606Z,66.47
2023-02-11T02:11:05.534Z,66.02
2023-02-11T02:13:36.389Z,65.03
2023-02-11T02:16:09.659Z,64.94
2023-02-11T02:18:59.059Z,65.93
2023-02-11T02:21:49.938Z,65.57
2023-02-11T02:24:37.699Z,66.18
2023-02-11T02:27:19.065Z,66.14
2023-02-11T02:30:11.910Z,66.16
2023-02-11T02:32:46.560Z,65.97
2023-02-11T02:35:35.629Z,66.08
2023-02-11T02:38:04.896Z,66.48
2023-02-11T02:40:37.315Z,65.72
2023-02-11T02:43:09.178Z,66.45
2023-02-11T02:45:38.394Z,66.09
2023-02-11T02:48:07.883Z,65.74
2023-02-11T02:50:38.040Z,65.31
2023-02-11T02:53:35.541Z,65.63
2023-02-11T02:56:15.295Z,66.32
2023-02-11T02:58:46.744Z,65.77
2023-02-11T03:01:46.068Z,65.68
2023-02-11T03:04:21.033Z,65.68
2023-02-11T03:07:03.714Z,65.77
2023-02-11T03:09:40.357Z,65.66
2023-02-11T03:12:10.613Z,65.72
2023-02-11T03:14:41.457Z,66.47
2023-02-11T03:17:11.006Z,65.55
2023-02-11T03:19:41.714Z,65.83
2023-02-11T03:22:26.988Z,65.85
2023-02-11T03:24:58.398Z,65.40
2023-02-11T03:27:34.469Z,65.50
2023-02-11T03:30:19.426Z,65.23
2023-02-11T03:32:52.604Z,65.56
2023-02-11T03:35:40.816Z,65.08
2023-02-11T03:38:19.177Z,65.67
2023-02-11T03:40:50.310Z,65.78
2023-02-11T03:43:23.164Z,65.52
2023-02-11T03:45:54.325Z,65.33
2023-02-11T03:48:26.566Z,65.49
2023-02-11T03:50:56.734Z,65.93
2023-02-11T03:53:25.844Z,65.84
2023-02-11T03:55:57.165Z,65.91
2023-02-11T03:58:27.031Z,66.41
2023-02-11T04:00:56.630Z,66.57
2023-02-11T04:03:28.165Z,66.49
2023-02-11T04:05:57.861Z,66.49
2023-02-11T04:08:26.242Z,66.22
2023-02-11T04:10:59.643Z,66.53
2023-02-11T04:13:29.351Z,66.24
2023-02-11T04:15:59.025Z,66.17
2023-02-11T04:18:30.643Z,66.62
2023-02-11T04:20:59.633Z,66.97
2023-02-11T04:23:29.541Z,66.56
2023-02-11T04:25:58.708Z,66.15
2023-02-11T04:28:31.874Z,66.87
2023-02-11T04:31:02.789Z,66.57
2023-02-11T04:33:32.292Z,66.65
2023-02-11T04:36:01.284Z,66.32
2023-02-11T04:38:30.908Z,66.47
2023-02-11T04:41:01.028Z,66.57
2023-02-11T04:43:30.546Z,66.05
2023-02-11T04:46:00.222Z,66.19
2023-02-11T04:48:29.859Z,66.34
2023-02-11T04:50:59.006Z,66.57
2023-02-11T04:53:28.667Z,67.14
2023-02-11T04:55:58.464Z,66.81
2023-02-11T04:58:27.994Z,66.73
2023-02-11T05:01:05.642Z,66.14
2023-02-11T05:03:35.628Z,65.91
2023-02-11T05:06:04.888Z,65.68
2023-02-11T05:08:34.619Z,65.92
2023-02-11T05:11:03.823Z,66.33
2023-02-11T05:13:33.587Z,66.10
2023-02-11T05:16:03.123Z,66.51
2023-02-11T05:18:32.829Z,66.40
2023-02-11T05:21:08.204Z,67.00
2023-02-11T05:23:39.200Z,66.90
2023-02-11T05:26:08.719Z,66.72
2023-02-11T05:28:39.447Z,66.99
2023-02-11T05:31:09.525Z,66.72
2023-02-11T05:33:39.173Z,66.25
2023-02-11T05:36:09.013Z,66.84
2023-02-11T05:38:39.527Z,67.06
2023-02-11T05:41:09.862Z,65.92
2023-02-11T05:43:40.224Z,66.37
2023-02-11T05:46:09.747Z,66.24
2023-02-11T05:48:39.021Z,66.21
2023-02-11T05:51:08.713Z,66.52
2023-02-11T05:53:38.220Z,66.77
2023-02-11T05:56:08.081Z,66.30
2023-02-11T05:58:39.113Z,66.57
2023-02-11T06:01:08.544Z,66.66
2023-02-11T06:03:37.721Z,67.05
2023-02-11T06:06:10.885Z,67.09
2023-02-11T06:08:40.375Z,67.09
2023-02-11T06:11:09.976Z,67.24
2023-02-11T06:13:41.382Z,66.73
2023-02-11T06:16:11.083Z,67.36
2023-02-11T06:18:39.635Z,67.13
2023-02-11T06:21:11.363Z,67.78
2023-02-11T06:23:41.066Z,67.25
2023-02-11T06:26:16.870Z,67.30
2023-02-11T06:28:45.537Z,67.81
2023-02-11T06:31:15.294Z,67.90
2023-02-11T06:33:45.170Z,68.08
2023-02-11T06:36:22.104Z,68.54
2023-02-11T06:38:50.845Z,68.24
2023-02-11T06:41:22.897Z,67.38
2023-02-11T06:43:53.236Z,67.29
2023-02-11T06:46:22.728Z,67.51
2023-02-11T06:48:52.354Z,67.72
2023-02-11T06:51:22.212Z,67.99
2023-02-11T06:53:51.893Z,67.69
2023-02-11T06:56:22.255Z,67.50
2023-02-11T06:58:55.898Z,67.29
2023-02-11T07:01:26.197Z,66.48
2023-02-11T07:03:55.361Z,66.58
2023-02-11T07:06:28.309Z,66.55
2023-02-11T07:09:00.354Z,66.46
2023-02-11T07:11:30.450Z,67.45
2023-02-11T07:14:04.503Z,67.21
2023-02-11T07:16:38.880Z,66.64
2023-02-11T07:19:07.835Z,66.65
2023-02-11T07:21:38.552Z,66.51
2023-02-11T07:24:10.907Z,66.54
2023-02-11T07:26:41.291Z,66.34
2023-02-11T07:29:13.097Z,65.76
2023-02-11T07:31:42.796Z,66.09
2023-02-11T07:34:13.006Z,65.05
2023-02-11T07:36:44.280Z,64.68
2023-02-11T07:39:14.073Z,65.03
2023-02-11T07:41:45.001Z,64.88
2023-02-11T07:44:15.422Z,64.74
2023-02-11T07:46:45.834Z,64.83
2023-02-11T07:49:16.856Z,64.37
2023-02-11T07:51:46.358Z,63.86
2023-02-11T07:54:15.868Z,63.35
2023-02-11T07:56:45.281Z,63.02
2023-02-11T07:59:14.816Z,62.95
2023-02-11T08:01:44.060Z,62.44
2023-02-11T08:04:16.727Z,62.36
2023-02-11T08:06:46.006Z,62.17
2023-02-11T08:09:17.613Z,61.94
2023-02-11T08:11:46.839Z,61.27
2023-02-11T08:14:16.126Z,60.70
2023-02-11T08:16:45.433Z,60.76
2023-02-11T08:19:16.654Z,59.77
2023-02-11T08:21:46.525Z,60.29
2023-02-11T08:24:15.182Z,59.58
2023-02-11T08:26:44.714Z,59.04
2023-02-11T08:29:14.982Z,58.39
2023-02-11T08:31:45.475Z,58.28
2023-02-11T08:34:18.877Z,58.15
2023-02-11T08:36:48.347Z,58.69
2023-02-11T08:39:20.453Z,58.09
2023-02-11T08:41:51.635Z,56.61
2023-02-11T08:44:21.593Z,56.03
2023-02-11T08:46:51.125Z,55.07
2023-02-11T08:49:20.928Z,54.14
2023-02-11T08:51:50.095Z,53.00
2023-02-11T08:54:19.428Z,53.64
2023-02-11T08:56:51.621Z,53.70
2023-02-11T08:59:20.911Z,53.22
2023-02-11T09:01:50.212Z,52.21
2023-02-11T09:04:19.944Z,51.66
2023-02-11T09:06:49.559Z,51.76
2023-02-11T09:09:19.059Z,51.02
2023-02-11T09:11:48.616Z,50.80
2023-02-11T09:14:20.547Z,49.84
2023-02-11T09:16:50.100Z,50.91
2023-02-11T09:19:19.704Z,50.13
2023-02-11T09:21:49.559Z,49.11
2023-02-11T09:24:19.863Z,49.40
2023-02-11T09:26:50.089Z,48.38
2023-02-11T09:29:19.263Z,46.49
2023-02-11T09:31:48.836Z,47.16
2023-02-11T09:34:17.686Z,47.53
2023-02-11T09:36:50.575Z,47.27
2023-02-11T09:39:20.932Z,47.52
2023-02-11T09:41:53.006Z,46.60
2023-02-11T09:44:25.495Z,45.12
2023-02-11T09:46:58.941Z,45.26
2023-02-11T09:49:35.605Z,44.23
2023-02-11T09:52:08.568Z,44.56
2023-02-11T09:54:58.373Z,44.42
2023-02-11T09:57:35.210Z,42.47
2023-02-11T10:00:25.483Z,41.22
2023-02-11T10:03:00.664Z,42.58
2023-02-11T10:05:32.205Z,41.82
2023-02-11T10:08:15.175Z,41.24
2023-02-11T10:11:30.637Z,41.19
2023-02-11T10:14:11.995Z,40.75
2023-02-11T10:16:51.727Z,40.28
2023-02-11T10:19:23.734Z,40.47
2023-02-11T10:21:54.972Z,39.94
2023-02-11T10:24:25.879Z,39.37
2023-02-11T10:26:56.767Z,38.86
2023-02-11T10:29:35.200Z,38.87
2023-02-11T10:32:10.325Z,39.19
2023-02-11T10:34:41.536Z,38.26
2023-02-11T10:37:14.250Z,37.41
2023-02-11T10:39:43.887Z,36.55
2023-02-11T10:42:13.507Z,37.41
2023-02-11T10:44:57.704Z,37.13
2023-02-11T10:47:30.660Z,36.87
2023-02-11T10:50:17.831Z,37.38
2023-02-11T10:52:47.768Z,35.96
2023-02-11T10:55:21.188Z,36.36
2023-02-11T10:57:53.408Z,36.55
2023-02-11T11:00:36.619Z,37.44
2023-02-11T11:03:17.971Z,38.14
2023-02-11T11:05:52.333Z,38.08
2023-02-11T11:08:22.930Z,38.23
2023-02-11T11:11:22.094Z,39.05
2023-02-11T11:13:54.368Z,37.68
2023-02-11T11:16:24.815Z,37.49
2023-02-11T11:19:14.191Z,37.74
2023-02-11T11:21:45.048Z,38.20
2023-02-11T11:24:17.125Z,38.86
2023-02-11T11:26:49.005Z,38.45
2023-02-11T11:29:20.542Z,37.99
2023-02-11T11:31:55.059Z,38.45
2023-02-11T11:34:34.464Z,38.41
2023-02-11T11:37:12.429Z,39.18
2023-02-11T11:39:41.869Z,39.67
2023-02-11T11:42:25.610Z,39.89
2023-02-11T11:45:00.006Z,40.01
2023-02-11T11:47:35.447Z,40.17
2023-02-11T11:50:04.923Z,40.25
2023-02-11T11:52:38.028Z,39.59
2023-02-11T11:55:19.508Z,40.10
2023-02-11T11:57:49.593Z,40.76
2023-02-11T12:00:26.683Z,40.23
2023-02-11T12:03:18.988Z,39.51
2023-02-11T12:06:03.834Z,39.74
2023-02-11T12:08:47.167Z,39.92
2023-02-11T12:11:24.800Z,39.77
2023-02-11T12:14:04.362Z,39.20
2023-02-11T12:16:45.916Z,39.66
2023-02-11T12:19:25.047Z,39.44
2023-02-11T12:22:00.493Z,39.14
2023-02-11T12:24:30.439Z,38.93
2023-02-11T12:27:07.443Z,39.17
2023-02-11T12:29:42.163Z,38.26
2023-02-11T12:32:14.661Z,37.79
2023-02-11T12:34:53.145Z,37.87
2023-02-11T12:37:37.226Z,38.54
2023-02-11T12:40:25.381Z,38.44
2023-02-11T12:43:19.633Z,38.64
2023-02-11T12:45:55.901Z,38.60
2023-02-11T12:48:25.808Z,38.02
2023-02-11T12:50:59.782Z,38.19
2023-02-11T12:53:39.278Z,39.20
2023-02-11T12:56:31.891Z,39.14
2023-02-11T12:59:02.484Z,39.72
2023-02-11T13:01:36.283Z,39.43
2023-02-11T13:04:17.754Z,39.38
2023-02-11T13:06:49.581Z,40.33
2023-02-11T13:09:41.973Z,40.02
2023-02-11T13:12:32.945Z,39.45
2023-02-11T13:15:08.389Z,39.85
2023-02-11T13:17:50.653Z,39.25
2023-02-11T13:20:29.557Z,40.53
2023-02-11T13:23:19.227Z,40.98
2023-02-11T13:25:55.114Z,40.75
2023-02-11T13:28:55.039Z,40.61
2023-02-11T13:31:27.877Z,40.39
2023-02-11T13:33:58.599Z,40.60
2023-02-11T13:36:30.669Z,40.85
2023-02-11T13:39:02.142Z,41.05
2023-02-11T13:41:32.811Z,41.06
2023-02-11T13:44:22.860Z,40.79
2023-02-11T13:46:54.445Z,41.30
2023-02-11T13:49:26.036Z,41.66
2023-02-11T13:51:56.282Z,42.25
2023-02-11T13:54:31.783Z,42.17
2023-02-11T13:57:19.549Z,42.96
2023-02-11T13:59:50.073Z,43.20
2023-02-11T14:02:43.559Z,43.64
2023-02-11T14:05:43.534Z,43.83
2023-02-11T14:08:32.154Z,43.81
2023-02-11T14:11:04.053Z,43.68
2023-02-11T14:13:33.066Z,44.21
2023-02-11T14:16:28.306Z,44.44
2023-02-11T14:19:06.723Z,44.81
2023-02-11T14:21:37.958Z,45.16
2023-02-11T14:24:07.504Z,45.14
2023-02-11T14:26:42.740Z,45.41
2023-02-11T14:29:20.592Z,45.12
2023-02-11T14:31:58.560Z,45.02
2023-02-11T14:34:46.508Z,45.12
2023-02-11T14:37:34.579Z,45.04
2023-02-11T14:40:06.062Z,45.37
2023-02-11T14:42:37.500Z,45.44
2023-02-11T14:45:11.566Z,45.47
2023-02-11T14:47:43.318Z,45.61
2023-02-11T14:50:18.415Z,45.86
2023-02-11T14:52:47.645Z,46.96
2023-02-11T14:55:24.347Z,47.51
2023-02-11T14:58:20.531Z,47.47
2023-02-11T15:00:57.634Z,47.48
2023-02-11T15:03:33.465Z,47.84
2023-02-11T15:06:03.105Z,47.99
2023-02-11T15:08:34.728Z,48.23
2023-02-11T15:11:08.332Z,48.69
2023-02-11T15:13:38.863Z,49.23
2023-02-11T15:16:11.503Z,49.08
2023-02-11T15:18:42.587Z,49.78
2023-02-11T15:21:11.437Z,49.53
2023-02-11T15:23:43.208Z,49.65
2023-02-11T15:26:18.330Z,50.72
2023-02-11T15:28:52.935Z,51.06
2023-02-11T15:31:24.177Z,51.36
2023-02-11T15:33:54.387Z,51.14
2023-02-11T15:36:36.588Z,50.85
2023-02-11T15:39:31.848Z,51.45
2023-02-11T15:42:23.948Z,51.61
2023-02-11T15:45:09.481Z,52.36
2023-02-11T15:47:39.558Z,52.23
2023-02-11T15:50:19.898Z,52.15
2023-02-11T15:52:50.267Z,52.32
2023-02-11T15:55:20.625Z,52.89
2023-02-11T15:57:55.298Z,53.26
2023-02-11T16:00:28.121Z,54.06
2023-02-11T16:02:58.242Z,54.66
2023-02-11T16:05:38.474Z,54.39
2023-02-11T16:08:21.186Z,54.71
2023-02-11T16:11:03.474Z,55.32
2023-02-11T16:13:36.141Z,55.19
2023-02-11T16:16:18.234Z,56.05
2023-02-11T16:19:05.841Z,55.98
2023-02-11T16:21:40.398Z,55.89
2023-02-11T16:24:30.485Z,56.08
2023-02-11T16:27:03.361Z,56.39
2023-02-11T16:29:37.066Z,56.49
2023-02-11T16:32:09.164Z,56.94
2023-02-11T16:34:38.529Z,56.87
2023-02-11T16:37:07.940Z,56.64
2023-02-11T16:39:37.513Z,57.07
2023-02-11T16:42:07.835Z,57.26
2023-02-11T16:44:37.443Z,57.63
2023-02-11T16:47:08.513Z,57.41
2023-02-11T16:49:41.269Z,57.17
2023-02-11T16:52:14.190Z,57.02
2023-02-11T16:54:45.481Z,56.57
2023-02-11T16:57:16.831Z,56.99
2023-02-11T16:59:46.910Z,57.05
2023-02-11T17:02:23.880Z,56.95
2023-02-11T17:04:54.916Z,58.02
2023-02-11T17:07:24.632Z,59.08
2023-02-11T17:09:54.298Z,58.92
2023-02-11T17:12:26.944Z,58.68
2023-02-11T17:14:55.370Z,58.82
2023-02-11T17:17:25.497Z,59.23
2023-02-11T17:19:56.535Z,59.36
2023-02-11T17:22:26.156Z,59.35
2023-02-11T17:24:59.276Z,59.87
2023-02-11T17:27:28.834Z,59.42
2023-02-11T17:29:58.208Z,59.81
2023-02-11T17:32:27.388Z,59.91
2023-02-11T17:34:57.395Z,59.37
2023-02-11T17:37:26.978Z,59.38
2023-02-11T17:39:56.404Z,60.23
2023-02-11T17:42:25.975Z,60.81
2023-02-11T17:44:55.698Z,60.89
2023-02-11T17:47:25.789Z,60.86
2023-02-11T17:49:55.332Z,61.22
2023-02-11T17:52:24.836Z,61.38
2023-02-11T17:54:55.306Z,61.28
2023-02-11T17:57:24.382Z,61.70
2023-02-11T17:59:53.989Z,62.51
2023-02-11T18:02:23.336Z,62.09
2023-02-11T18:04:53.785Z,61.85
2023-02-11T18:07:23.442Z,63.00
2023-02-11T18:09:53.256Z,62.97
2023-02-11T18:12:27.231Z,63.11
2023-02-11T18:14:58.213Z,62.91
2023-02-11T18:17:27.933Z,63.26
2023-02-11T18:19:57.861Z,62.34
2023-02-11T18:22:28.155Z,62.32
2023-02-11T18:24:57.828Z,61.92
2023-02-11T18:27:28.472Z,62.36
2023-02-11T18:29:58.168Z,62.91
2023-02-11T18:32:27.683Z,62.99
2023-02-11T18:34:57.437Z,63.06
2023-02-11T18:37:27.351Z,62.89
2023-02-11T18:39:57.465Z,62.74
2023-02-11T18:42:28.247Z,63.27
2023-02-11T18:44:57.908Z,63.31
2023-02-11T18:47:27.378Z,63.39
2023-02-11T18:49:56.886Z,62.79
2023-02-11T18:52:26.595Z,62.72
2023-02-11T18:54:55.049Z,63.33
2023-02-11T18:57:24.657Z,63.28
2023-02-11T18:59:55.760Z,63.27
2023-02-11T19:02:28.949Z,63.07
2023-02-11T19:04:59.445Z,63.45
2023-02-11T19:07:28.902Z,63.56
2023-02-11T19:09:57.367Z,63.82
2023-02-11T19:12:27.350Z,64.11
2023-02-11T19:14:59.520Z,63.71
2023-02-11T19:17:29.229Z,63.59
2023-02-11T19:19:58.872Z,63.75
2023-02-11T19:22:28.457Z,63.58
2023-02-11T19:24:58.096Z,63.61
2023-02-11T19:27:27.676Z,63.54
2023-02-11T19:29:57.147Z,63.46
2023-02-11T19:32:26.734Z,63.84
2023-02-11T19:34:56.350Z,63.52
2023-02-11T19:37:25.892Z,63.39
2023-02-11T19:39:55.348Z,63.12
2023-02-11T19:42:27.827Z,64.14
2023-02-11T19:44:57.713Z,64.28
2023-02-11T19:47:28.191Z,64.93
2023-02-11T19:49:57.983Z,64.74
2023-02-11T19:52:27.024Z,64.57
2023-02-11T19:54:58.363Z,64.54
2023-02-11T19:57:26.772Z,64.21
2023-02-11T19:59:57.368Z,63.90
2023-02-11T20:02:27.050Z,64.54
2023-02-11T20:04:56.591Z,64.42
2023-02-11T20:07:25.066Z,64.30
2023-02-11T20:09:54.814Z,64.59
2023-02-11T20:12:23.995Z,64.92
2023-02-11T20:14:53.415Z,64.36
2023-02-11T20:17:22.995Z,63.96
2023-02-11T20:19:52.181Z,64.29
2023-02-11T20:22:21.544Z,64.49
2023-02-11T20:24:50.752Z,64.68
2023-02-11T20:27:21.988Z,64.35
2023-02-11T20:29:51.167Z,64.08
2023-02-11T20:32:20.402Z,64.52
2023-02-11T20:34:49.621Z,64.43
2023-02-11T20:37:19.055Z,63.99
2023-02-11T20:39:47.816Z,63.71
2023-02-11T20:42:17.101Z,63.71
2023-02-11T20:44:46.659Z,64.07
2023-02-11T20:47:16.252Z,63.86
2023-02-11T20:49:45.688Z,64.34
2023-02-11T20:52:15.339Z,64.62
2023-02-11T20:54:44.832Z,65.25
2023-02-11T20:57:14.292Z,65.22
2023-02-11T20:59:44.202Z,65.04
2023-02-11T21:02:13.747Z,65.42
2023-02-11T21:04:43.299Z,66.15
2023-02-11T21:07:13.085Z,65.99
2023-02-11T21:09:42.599Z,66.65
2023-02-11T21:12:11.783Z,66.10
2023-02-11T21:14:41.780Z,65.92
2023-02-11T21:17:13.422Z,65.50
2023-02-11T21:19:43.777Z,65.98
2023-02-11T21:22:12.949Z,65.70
2023-02-11T21:24:42.464Z,65.65
2023-02-11T21:27:12.301Z,65.69
2023-02-11T21:29:53.469Z,65.58
2023-02-11T21:32:23.606Z,65.76
2023-02-11T21:34:54.385Z,64.91
2023-02-11T21:37:24.816Z,64.80
2023-02-11T21:39:54.036Z,64.61
